sensor_id;sensor_type;location;lat;lon;timestamp;P1;durP1;ratioP1;P2;durP2;ratioP2
38603;SDS011;24924;50.054;8.790;2023-12-20T00:00:36;6.93;;;4.60;;
38603;SDS011;24924;50.054;8.790;2023-12-20T00:03:03;8.45;;;4.80;;
38603;SDS011;24924;50.054;8.790;2023-12-20T00:05:29;6.38;;;3.83;;
38603;SDS011;24924;50.054;8.790;2023-12-20T00:07:58;8.25;;;4.35;;
38603;SDS011;24924;50.054;8.790;2023-12-20T00:10:24;5.33;;;3.40;;
38603;SDS011;24924;50.054;8.790;2023-12-20T00:12:50;6.57;;;4.78;;
38603;SDS011;24924;50.054;8.790;2023-12-20T00:15:15;7.87;;;4.30;;
38603;SDS011;24924;50.054;8.790;2023-12-20T00:17:41;6.05;;;3.95;;
38603;SDS011;24924;50.054;8.790;2023-12-20T00:20:07;5.37;;;3.53;;
38603;SDS011;24924;50.054;8.790;2023-12-20T00:22:33;8.83;;;5.63;;
38603;SDS011;24924;50.054;8.790;2023-12-20T00:24:59;7.82;;;3.90;;
38603;SDS011;24924;50.054;8.790;2023-12-20T00:27:25;8.15;;;4.25;;
38603;SDS011;24924;50.054;8.790;2023-12-20T00:29:51;7.47;;;4.13;;
38603;SDS011;24924;50.054;8.790;2023-12-20T00:32:17;6.72;;;4.80;;
38603;SDS011;24924;50.054;8.790;2023-12-20T00:34:43;5.97;;;3.75;;
38603;SDS011;24924;50.054;8.790;2023-12-20T00:37:09;5.13;;;3.40;;
38603;SDS011;24924;50.054;8.790;2023-12-20T00:39:35;5.32;;;3.75;;
38603;SDS011;24924;50.054;8.790;2023-12-20T00:42:01;6.03;;;4.00;;
38603;SDS011;24924;50.054;8.790;2023-12-20T00:44:26;5.30;;;3.43;;
38603;SDS011;24924;50.054;8.790;2023-12-20T00:46:52;6.30;;;4.22;;
38603;SDS011;24924;50.054;8.790;2023-12-20T00:49:18;6.38;;;4.05;;
38603;SDS011;24924;50.054;8.790;2023-12-20T00:51:44;6.83;;;4.77;;
38603;SDS011;24924;50.054;8.790;2023-12-20T00:54:10;6.13;;;4.60;;
38603;SDS011;24924;50.054;8.790;2023-12-20T00:56:36;7.40;;;4.00;;
38603;SDS011;24924;50.054;8.790;2023-12-20T00:59:02;5.87;;;3.97;;
38603;SDS011;24924;50.054;8.790;2023-12-20T01:01:28;7.18;;;4.00;;
38603;SDS011;24924;50.054;8.790;2023-12-20T01:03:53;4.68;;;3.40;;
38603;SDS011;24924;50.054;8.790;2023-12-20T01:06:20;6.80;;;4.83;;
38603;SDS011;24924;50.054;8.790;2023-12-20T01:08:46;5.75;;;3.50;;
38603;SDS011;24924;50.054;8.790;2023-12-20T01:11:12;6.03;;;3.95;;
38603;SDS011;24924;50.054;8.790;2023-12-20T01:13:38;5.47;;;3.77;;
38603;SDS011;24924;50.054;8.790;2023-12-20T01:16:03;5.20;;;3.35;;
38603;SDS011;24924;50.054;8.790;2023-12-20T01:18:29;5.50;;;3.67;;
38603;SDS011;24924;50.054;8.790;2023-12-20T01:20:55;6.23;;;4.20;;
38603;SDS011;24924;50.054;8.790;2023-12-20T01:23:21;5.67;;;3.87;;
38603;SDS011;24924;50.054;8.790;2023-12-20T01:25:47;7.17;;;4.63;;
38603;SDS011;24924;50.054;8.790;2023-12-20T01:28:13;7.82;;;3.50;;
38603;SDS011;24924;50.054;8.790;2023-12-20T01:30:39;5.85;;;3.80;;
38603;SDS011;24924;50.054;8.790;2023-12-20T01:33:05;5.73;;;3.73;;
38603;SDS011;24924;50.054;8.790;2023-12-20T01:35:31;4.70;;;3.38;;
38603;SDS011;24924;50.054;8.790;2023-12-20T01:37:56;4.60;;;3.40;;
38603;SDS011;24924;50.054;8.790;2023-12-20T01:40:22;6.53;;;4.03;;
38603;SDS011;24924;50.054;8.790;2023-12-20T01:43:01;5.60;;;3.17;;
38603;SDS011;24924;50.054;8.790;2023-12-20T01:45:30;6.95;;;4.18;;
38603;SDS011;24924;50.054;8.790;2023-12-20T01:47:56;5.30;;;3.80;;
38603;SDS011;24924;50.054;8.790;2023-12-20T01:50:23;4.55;;;3.10;;
38603;SDS011;24924;50.054;8.790;2023-12-20T01:52:50;5.40;;;3.50;;
38603;SDS011;24924;50.054;8.790;2023-12-20T01:55:18;6.20;;;3.60;;
38603;SDS011;24924;50.054;8.790;2023-12-20T01:57:45;5.10;;;3.47;;
38603;SDS011;24924;50.054;8.790;2023-12-20T02:00:12;4.35;;;2.80;;
38603;SDS011;24924;50.054;8.790;2023-12-20T02:02:40;5.80;;;3.75;;
38603;SDS011;24924;50.054;8.790;2023-12-20T02:05:06;3.90;;;2.63;;
38603;SDS011;24924;50.054;8.790;2023-12-20T02:07:32;4.10;;;3.00;;
38603;SDS011;24924;50.054;8.790;2023-12-20T02:10:01;5.10;;;3.42;;
38603;SDS011;24924;50.054;8.790;2023-12-20T02:12:27;7.22;;;3.30;;
38603;SDS011;24924;50.054;8.790;2023-12-20T02:14:53;4.28;;;3.20;;
38603;SDS011;24924;50.054;8.790;2023-12-20T02:17:19;6.17;;;3.87;;
38603;SDS011;24924;50.054;8.790;2023-12-20T02:19:45;7.90;;;3.72;;
38603;SDS011;24924;50.054;8.790;2023-12-20T02:22:12;6.35;;;3.00;;
38603;SDS011;24924;50.054;8.790;2023-12-20T02:24:38;6.22;;;3.90;;
38603;SDS011;24924;50.054;8.790;2023-12-20T02:27:05;6.20;;;3.57;;
38603;SDS011;24924;50.054;8.790;2023-12-20T02:29:32;3.95;;;2.80;;
38603;SDS011;24924;50.054;8.790;2023-12-20T02:32:01;5.25;;;2.92;;
38603;SDS011;24924;50.054;8.790;2023-12-20T02:34:28;5.35;;;3.13;;
38603;SDS011;24924;50.054;8.790;2023-12-20T02:36:54;5.25;;;3.28;;
38603;SDS011;24924;50.054;8.790;2023-12-20T02:39:20;6.30;;;3.37;;
38603;SDS011;24924;50.054;8.790;2023-12-20T02:41:47;5.32;;;3.58;;
38603;SDS011;24924;50.054;8.790;2023-12-20T02:44:13;6.22;;;3.30;;
38603;SDS011;24924;50.054;8.790;2023-12-20T02:46:39;4.05;;;2.90;;
38603;SDS011;24924;50.054;8.790;2023-12-20T02:49:06;4.47;;;3.23;;
38603;SDS011;24924;50.054;8.790;2023-12-20T02:51:32;5.15;;;3.40;;
38603;SDS011;24924;50.054;8.790;2023-12-20T02:53:58;5.25;;;3.45;;
38603;SDS011;24924;50.054;8.790;2023-12-20T02:56:23;4.53;;;2.87;;
38603;SDS011;24924;50.054;8.790;2023-12-20T02:58:49;5.43;;;3.78;;
38603;SDS011;24924;50.054;8.790;2023-12-20T03:01:15;7.00;;;3.47;;
38603;SDS011;24924;50.054;8.790;2023-12-20T03:03:41;6.03;;;3.67;;
38603;SDS011;24924;50.054;8.790;2023-12-20T03:06:07;5.50;;;3.63;;
38603;SDS011;24924;50.054;8.790;2023-12-20T03:08:33;6.47;;;3.80;;
38603;SDS011;24924;50.054;8.790;2023-12-20T03:10:59;4.87;;;3.13;;
38603;SDS011;24924;50.054;8.790;2023-12-20T03:13:25;5.95;;;3.25;;
38603;SDS011;24924;50.054;8.790;2023-12-20T03:15:51;7.32;;;3.03;;
38603;SDS011;24924;50.054;8.790;2023-12-20T03:18:17;6.30;;;3.63;;
38603;SDS011;24924;50.054;8.790;2023-12-20T03:20:43;4.75;;;3.13;;
38603;SDS011;24924;50.054;8.790;2023-12-20T03:23:09;4.78;;;3.67;;
38603;SDS011;24924;50.054;8.790;2023-12-20T03:25:35;5.47;;;3.70;;
38603;SDS011;24924;50.054;8.790;2023-12-20T03:28:01;4.18;;;3.08;;
38603;SDS011;24924;50.054;8.790;2023-12-20T03:30:27;5.30;;;3.20;;
38603;SDS011;24924;50.054;8.790;2023-12-20T03:32:52;6.03;;;3.60;;
38603;SDS011;24924;50.054;8.790;2023-12-20T03:35:18;6.10;;;4.45;;
38603;SDS011;24924;50.054;8.790;2023-12-20T03:37:44;4.87;;;3.40;;
38603;SDS011;24924;50.054;8.790;2023-12-20T03:40:10;5.13;;;3.05;;
38603;SDS011;24924;50.054;8.790;2023-12-20T03:42:36;5.18;;;4.18;;
38603;SDS011;24924;50.054;8.790;2023-12-20T03:45:02;5.73;;;3.10;;
38603;SDS011;24924;50.054;8.790;2023-12-20T03:47:28;4.22;;;3.10;;
38603;SDS011;24924;50.054;8.790;2023-12-20T03:49:53;5.55;;;3.03;;
38603;SDS011;24924;50.054;8.790;2023-12-20T03:52:19;4.67;;;2.77;;
38603;SDS011;24924;50.054;8.790;2023-12-20T03:54:45;4.72;;;3.47;;
38603;SDS011;24924;50.054;8.790;2023-12-20T03:57:11;6.83;;;3.67;;
38603;SDS011;24924;50.054;8.790;2023-12-20T03:59:37;4.40;;;2.75;;
38603;SDS011;24924;50.054;8.790;2023-12-20T04:02:03;4.30;;;2.75;;
38603;SDS011;24924;50.054;8.790;2023-12-20T04:04:29;4.95;;;3.55;;
38603;SDS011;24924;50.054;8.790;2023-12-20T04:06:55;5.73;;;3.40;;
38603;SDS011;24924;50.054;8.790;2023-12-20T04:09:21;5.22;;;3.20;;
38603;SDS011;24924;50.054;8.790;2023-12-20T04:11:47;4.38;;;3.13;;
38603;SDS011;24924;50.054;8.790;2023-12-20T04:14:13;5.00;;;3.23;;
38603;SDS011;24924;50.054;8.790;2023-12-20T04:16:39;4.82;;;3.47;;
38603;SDS011;24924;50.054;8.790;2023-12-20T04:19:05;3.92;;;2.92;;
38603;SDS011;24924;50.054;8.790;2023-12-20T04:21:31;4.20;;;3.03;;
38603;SDS011;24924;50.054;8.790;2023-12-20T04:23:57;4.40;;;3.28;;
38603;SDS011;24924;50.054;8.790;2023-12-20T04:26:22;4.07;;;3.13;;
38603;SDS011;24924;50.054;8.790;2023-12-20T04:28:48;4.90;;;3.23;;
38603;SDS011;24924;50.054;8.790;2023-12-20T04:31:14;5.07;;;3.22;;
38603;SDS011;24924;50.054;8.790;2023-12-20T04:33:40;6.53;;;3.00;;
38603;SDS011;24924;50.054;8.790;2023-12-20T04:36:06;4.28;;;3.20;;
38603;SDS011;24924;50.054;8.790;2023-12-20T04:38:32;4.97;;;2.90;;
38603;SDS011;24924;50.054;8.790;2023-12-20T04:40:58;4.63;;;2.93;;
38603;SDS011;24924;50.054;8.790;2023-12-20T04:43:23;5.05;;;3.35;;
38603;SDS011;24924;50.054;8.790;2023-12-20T04:45:49;3.70;;;2.60;;
38603;SDS011;24924;50.054;8.790;2023-12-20T04:48:15;5.00;;;2.90;;
38603;SDS011;24924;50.054;8.790;2023-12-20T04:50:41;5.45;;;2.83;;
38603;SDS011;24924;50.054;8.790;2023-12-20T04:53:07;4.47;;;3.28;;
38603;SDS011;24924;50.054;8.790;2023-12-20T04:55:33;4.57;;;2.90;;
38603;SDS011;24924;50.054;8.790;2023-12-20T04:57:59;4.85;;;3.33;;
38603;SDS011;24924;50.054;8.790;2023-12-20T05:00:25;4.47;;;2.95;;
38603;SDS011;24924;50.054;8.790;2023-12-20T05:02:50;4.10;;;2.93;;
38603;SDS011;24924;50.054;8.790;2023-12-20T05:05:17;5.70;;;3.30;;
38603;SDS011;24924;50.054;8.790;2023-12-20T05:07:43;5.47;;;2.85;;
38603;SDS011;24924;50.054;8.790;2023-12-20T05:10:09;5.72;;;3.50;;
38603;SDS011;24924;50.054;8.790;2023-12-20T05:12:35;8.15;;;3.70;;
38603;SDS011;24924;50.054;8.790;2023-12-20T05:15:01;4.20;;;3.20;;
38603;SDS011;24924;50.054;8.790;2023-12-20T05:17:27;4.15;;;3.10;;
38603;SDS011;24924;50.054;8.790;2023-12-20T05:19:53;4.43;;;3.33;;
38603;SDS011;24924;50.054;8.790;2023-12-20T05:22:19;6.40;;;3.47;;
38603;SDS011;24924;50.054;8.790;2023-12-20T05:24:45;4.40;;;2.90;;
38603;SDS011;24924;50.054;8.790;2023-12-20T05:27:11;4.97;;;3.17;;
38603;SDS011;24924;50.054;8.790;2023-12-20T05:29:37;5.13;;;3.40;;
38603;SDS011;24924;50.054;8.790;2023-12-20T05:32:03;4.20;;;3.10;;
38603;SDS011;24924;50.054;8.790;2023-12-20T05:34:30;4.03;;;2.83;;
38603;SDS011;24924;50.054;8.790;2023-12-20T05:36:56;6.00;;;3.43;;
38603;SDS011;24924;50.054;8.790;2023-12-20T05:39:22;5.03;;;3.08;;
38603;SDS011;24924;50.054;8.790;2023-12-20T05:41:48;4.43;;;2.75;;
38603;SDS011;24924;50.054;8.790;2023-12-20T05:44:14;4.20;;;2.90;;
38603;SDS011;24924;50.054;8.790;2023-12-20T05:46:40;4.53;;;3.30;;
38603;SDS011;24924;50.054;8.790;2023-12-20T05:49:06;5.22;;;3.20;;
38603;SDS011;24924;50.054;8.790;2023-12-20T05:51:32;5.40;;;3.67;;
38603;SDS011;24924;50.054;8.790;2023-12-20T05:53:58;4.47;;;3.15;;
38603;SDS011;24924;50.054;8.790;2023-12-20T05:56:24;6.97;;;2.88;;
38603;SDS011;24924;50.054;8.790;2023-12-20T05:58:50;4.10;;;2.85;;
38603;SDS011;24924;50.054;8.790;2023-12-20T06:01:16;4.10;;;2.77;;
38603;SDS011;24924;50.054;8.790;2023-12-20T06:03:45;6.50;;;3.87;;
38603;SDS011;24924;50.054;8.790;2023-12-20T06:06:11;4.57;;;2.67;;
38603;SDS011;24924;50.054;8.790;2023-12-20T06:08:38;4.40;;;2.78;;
38603;SDS011;24924;50.054;8.790;2023-12-20T06:11:04;4.07;;;2.83;;
38603;SDS011;24924;50.054;8.790;2023-12-20T06:13:30;4.10;;;2.83;;
38603;SDS011;24924;50.054;8.790;2023-12-20T06:15:56;5.82;;;2.85;;
38603;SDS011;24924;50.054;8.790;2023-12-20T06:18:23;5.88;;;3.30;;
38603;SDS011;24924;50.054;8.790;2023-12-20T06:20:49;4.80;;;3.13;;
38603;SDS011;24924;50.054;8.790;2023-12-20T06:23:15;7.07;;;3.47;;
38603;SDS011;24924;50.054;8.790;2023-12-20T06:25:41;4.82;;;3.58;;
38603;SDS011;24924;50.054;8.790;2023-12-20T06:28:06;6.60;;;3.37;;
38603;SDS011;24924;50.054;8.790;2023-12-20T06:30:33;4.22;;;2.65;;
38603;SDS011;24924;50.054;8.790;2023-12-20T06:32:59;5.45;;;2.90;;
38603;SDS011;24924;50.054;8.790;2023-12-20T06:35:25;3.93;;;2.83;;
38603;SDS011;24924;50.054;8.790;2023-12-20T06:37:51;4.03;;;2.70;;
38603;SDS011;24924;50.054;8.790;2023-12-20T06:40:17;4.03;;;2.60;;
38603;SDS011;24924;50.054;8.790;2023-12-20T06:42:43;4.25;;;2.97;;
38603;SDS011;24924;50.054;8.790;2023-12-20T06:45:09;4.80;;;3.23;;
38603;SDS011;24924;50.054;8.790;2023-12-20T06:47:35;3.83;;;2.92;;
38603;SDS011;24924;50.054;8.790;2023-12-20T06:50:01;4.50;;;2.88;;
38603;SDS011;24924;50.054;8.790;2023-12-20T06:52:27;4.10;;;3.05;;
38603;SDS011;24924;50.054;8.790;2023-12-20T06:54:53;4.10;;;2.70;;
38603;SDS011;24924;50.054;8.790;2023-12-20T06:57:19;4.28;;;2.95;;
38603;SDS011;24924;50.054;8.790;2023-12-20T06:59:45;4.35;;;2.97;;
38603;SDS011;24924;50.054;8.790;2023-12-20T07:02:10;5.00;;;3.00;;
38603;SDS011;24924;50.054;8.790;2023-12-20T07:04:40;4.10;;;3.20;;
38603;SDS011;24924;50.054;8.790;2023-12-20T07:07:06;5.63;;;2.92;;
38603;SDS011;24924;50.054;8.790;2023-12-20T07:09:32;5.10;;;3.25;;
38603;SDS011;24924;50.054;8.790;2023-12-20T07:11:58;6.40;;;3.43;;
38603;SDS011;24924;50.054;8.790;2023-12-20T07:14:24;4.32;;;2.80;;
38603;SDS011;24924;50.054;8.790;2023-12-20T07:16:50;5.88;;;3.50;;
38603;SDS011;24924;50.054;8.790;2023-12-20T07:19:16;4.10;;;2.97;;
38603;SDS011;24924;50.054;8.790;2023-12-20T07:21:42;5.63;;;2.97;;
38603;SDS011;24924;50.054;8.790;2023-12-20T07:24:08;4.43;;;3.22;;
38603;SDS011;24924;50.054;8.790;2023-12-20T07:26:34;4.40;;;2.97;;
38603;SDS011;24924;50.054;8.790;2023-12-20T07:29:00;4.57;;;3.22;;
38603;SDS011;24924;50.054;8.790;2023-12-20T07:31:26;4.45;;;3.00;;
38603;SDS011;24924;50.054;8.790;2023-12-20T07:33:52;5.50;;;2.87;;
38603;SDS011;24924;50.054;8.790;2023-12-20T07:36:19;4.03;;;2.67;;
38603;SDS011;24924;50.054;8.790;2023-12-20T07:38:45;5.13;;;3.28;;
38603;SDS011;24924;50.054;8.790;2023-12-20T07:41:11;5.57;;;3.30;;
38603;SDS011;24924;50.054;8.790;2023-12-20T07:43:37;4.83;;;3.07;;
38603;SDS011;24924;50.054;8.790;2023-12-20T07:46:06;5.43;;;3.20;;
38603;SDS011;24924;50.054;8.790;2023-12-20T07:48:34;4.32;;;2.72;;
38603;SDS011;24924;50.054;8.790;2023-12-20T07:51:01;4.68;;;3.20;;
38603;SDS011;24924;50.054;8.790;2023-12-20T07:53:27;3.77;;;2.70;;
38603;SDS011;24924;50.054;8.790;2023-12-20T07:55:53;4.88;;;2.85;;
38603;SDS011;24924;50.054;8.790;2023-12-20T07:58:19;4.57;;;2.80;;
38603;SDS011;24924;50.054;8.790;2023-12-20T08:00:45;4.78;;;2.70;;
38603;SDS011;24924;50.054;8.790;2023-12-20T08:03:11;3.63;;;2.50;;
38603;SDS011;24924;50.054;8.790;2023-12-20T08:05:38;3.78;;;2.70;;
38603;SDS011;24924;50.054;8.790;2023-12-20T08:08:05;4.00;;;2.80;;
38603;SDS011;24924;50.054;8.790;2023-12-20T08:10:32;3.42;;;2.50;;
38603;SDS011;24924;50.054;8.790;2023-12-20T08:12:58;5.35;;;2.67;;
38603;SDS011;24924;50.054;8.790;2023-12-20T08:15:24;6.40;;;2.65;;
38603;SDS011;24924;50.054;8.790;2023-12-20T08:17:50;3.53;;;2.30;;
38603;SDS011;24924;50.054;8.790;2023-12-20T08:20:19;3.92;;;2.70;;
38603;SDS011;24924;50.054;8.790;2023-12-20T08:22:44;4.00;;;2.80;;
38603;SDS011;24924;50.054;8.790;2023-12-20T08:25:10;5.32;;;3.75;;
38603;SDS011;24924;50.054;8.790;2023-12-20T08:27:39;3.80;;;2.70;;
38603;SDS011;24924;50.054;8.790;2023-12-20T08:30:05;4.15;;;2.70;;
38603;SDS011;24924;50.054;8.790;2023-12-20T08:32:31;4.57;;;2.97;;
38603;SDS011;24924;50.054;8.790;2023-12-20T08:34:57;3.92;;;2.75;;
38603;SDS011;24924;50.054;8.790;2023-12-20T08:37:23;8.07;;;2.80;;
38603;SDS011;24924;50.054;8.790;2023-12-20T08:39:49;4.73;;;2.50;;
38603;SDS011;24924;50.054;8.790;2023-12-20T08:42:15;5.60;;;2.50;;
38603;SDS011;24924;50.054;8.790;2023-12-20T08:44:40;5.85;;;2.25;;
38603;SDS011;24924;50.054;8.790;2023-12-20T08:47:06;6.03;;;2.80;;
38603;SDS011;24924;50.054;8.790;2023-12-20T08:49:32;3.88;;;2.47;;
38603;SDS011;24924;50.054;8.790;2023-12-20T08:51:58;3.40;;;2.30;;
38603;SDS011;24924;50.054;8.790;2023-12-20T08:54:24;4.30;;;2.50;;
38603;SDS011;24924;50.054;8.790;2023-12-20T08:56:49;4.00;;;2.60;;
38603;SDS011;24924;50.054;8.790;2023-12-20T08:59:15;3.63;;;2.57;;
38603;SDS011;24924;50.054;8.790;2023-12-20T09:01:41;4.88;;;2.35;;
38603;SDS011;24924;50.054;8.790;2023-12-20T09:04:06;3.47;;;2.23;;
38603;SDS011;24924;50.054;8.790;2023-12-20T09:06:32;3.58;;;2.10;;
38603;SDS011;24924;50.054;8.790;2023-12-20T09:08:58;3.20;;;1.95;;
38603;SDS011;24924;50.054;8.790;2023-12-20T09:11:24;7.93;;;2.40;;
38603;SDS011;24924;50.054;8.790;2023-12-20T09:13:49;3.90;;;2.28;;
38603;SDS011;24924;50.054;8.790;2023-12-20T09:16:15;3.90;;;2.40;;
38603;SDS011;24924;50.054;8.790;2023-12-20T09:18:42;3.70;;;2.42;;
38603;SDS011;24924;50.054;8.790;2023-12-20T09:21:08;3.40;;;2.35;;
38603;SDS011;24924;50.054;8.790;2023-12-20T09:23:33;3.50;;;2.50;;
38603;SDS011;24924;50.054;8.790;2023-12-20T09:25:59;4.05;;;2.78;;
38603;SDS011;24924;50.054;8.790;2023-12-20T09:28:24;3.50;;;2.30;;
38603;SDS011;24924;50.054;8.790;2023-12-20T09:30:50;9.00;;;2.60;;
38603;SDS011;24924;50.054;8.790;2023-12-20T09:33:16;4.30;;;2.70;;
38603;SDS011;24924;50.054;8.790;2023-12-20T09:35:42;4.15;;;2.42;;
38603;SDS011;24924;50.054;8.790;2023-12-20T09:38:09;5.45;;;2.30;;
38603;SDS011;24924;50.054;8.790;2023-12-20T09:40:35;4.77;;;2.63;;
38603;SDS011;24924;50.054;8.790;2023-12-20T09:43:10;4.47;;;2.42;;
38603;SDS011;24924;50.054;8.790;2023-12-20T09:45:39;3.63;;;2.40;;
38603;SDS011;24924;50.054;8.790;2023-12-20T09:48:06;3.53;;;2.25;;
38603;SDS011;24924;50.054;8.790;2023-12-20T09:50:35;3.95;;;2.42;;
38603;SDS011;24924;50.054;8.790;2023-12-20T09:53:01;4.10;;;2.70;;
38603;SDS011;24924;50.054;8.790;2023-12-20T09:55:30;5.65;;;2.40;;
38603;SDS011;24924;50.054;8.790;2023-12-20T09:57:57;3.75;;;2.28;;
38603;SDS011;24924;50.054;8.790;2023-12-20T10:00:23;3.50;;;2.45;;
38603;SDS011;24924;50.054;8.790;2023-12-20T10:02:50;4.07;;;2.70;;
38603;SDS011;24924;50.054;8.790;2023-12-20T10:05:16;8.25;;;2.60;;
38603;SDS011;24924;50.054;8.790;2023-12-20T10:07:46;8.98;;;2.85;;
38603;SDS011;24924;50.054;8.790;2023-12-20T10:10:13;4.55;;;2.58;;
38603;SDS011;24924;50.054;8.790;2023-12-20T10:12:39;7.15;;;3.08;;
38603;SDS011;24924;50.054;8.790;2023-12-20T10:15:05;3.33;;;2.10;;
38603;SDS011;24924;50.054;8.790;2023-12-20T10:17:31;6.13;;;2.67;;
38603;SDS011;24924;50.054;8.790;2023-12-20T10:19:58;4.82;;;2.45;;
38603;SDS011;24924;50.054;8.790;2023-12-20T10:22:23;5.43;;;2.90;;
38603;SDS011;24924;50.054;8.790;2023-12-20T10:24:49;5.75;;;2.40;;
38603;SDS011;24924;50.054;8.790;2023-12-20T10:27:15;5.20;;;2.67;;
38603;SDS011;24924;50.054;8.790;2023-12-20T10:29:44;3.80;;;2.27;;
38603;SDS011;24924;50.054;8.790;2023-12-20T10:32:23;5.70;;;2.50;;
38603;SDS011;24924;50.054;8.790;2023-12-20T10:34:51;8.65;;;2.65;;
38603;SDS011;24924;50.054;8.790;2023-12-20T10:37:17;6.28;;;2.75;;
38603;SDS011;24924;50.054;8.790;2023-12-20T10:39:43;4.03;;;2.23;;
38603;SDS011;24924;50.054;8.790;2023-12-20T10:42:13;5.30;;;2.35;;
38603;SDS011;24924;50.054;8.790;2023-12-20T10:44:40;7.00;;;2.47;;
38603;SDS011;24924;50.054;8.790;2023-12-20T10:47:06;6.07;;;2.53;;
38603;SDS011;24924;50.054;8.790;2023-12-20T10:49:36;4.10;;;2.20;;
38603;SDS011;24924;50.054;8.790;2023-12-20T10:52:04;3.20;;;1.90;;
38603;SDS011;24924;50.054;8.790;2023-12-20T10:54:31;4.07;;;2.30;;
38603;SDS011;24924;50.054;8.790;2023-12-20T10:56:57;5.25;;;2.47;;
38603;SDS011;24924;50.054;8.790;2023-12-20T10:59:23;6.28;;;2.67;;
38603;SDS011;24924;50.054;8.790;2023-12-20T11:01:50;4.43;;;3.07;;
38603;SDS011;24924;50.054;8.790;2023-12-20T11:04:20;6.05;;;2.53;;
38603;SDS011;24924;50.054;8.790;2023-12-20T11:07:17;5.35;;;2.05;;
38603;SDS011;24924;50.054;8.790;2023-12-20T11:10:00;7.10;;;2.83;;
38603;SDS011;24924;50.054;8.790;2023-12-20T11:12:48;5.30;;;2.63;;
38603;SDS011;24924;50.054;8.790;2023-12-20T11:15:24;3.83;;;2.20;;
38603;SDS011;24924;50.054;8.790;2023-12-20T11:17:54;14.07;;;3.65;;
38603;SDS011;24924;50.054;8.790;2023-12-20T11:20:22;3.70;;;2.20;;
38603;SDS011;24924;50.054;8.790;2023-12-20T11:22:52;4.18;;;2.28;;
38603;SDS011;24924;50.054;8.790;2023-12-20T11:25:19;5.07;;;2.55;;
38603;SDS011;24924;50.054;8.790;2023-12-20T11:27:46;7.60;;;2.87;;
38603;SDS011;24924;50.054;8.790;2023-12-20T11:30:47;4.35;;;2.17;;
38603;SDS011;24924;50.054;8.790;2023-12-20T11:33:21;5.20;;;3.00;;
38603;SDS011;24924;50.054;8.790;2023-12-20T11:35:48;5.82;;;2.88;;
38603;SDS011;24924;50.054;8.790;2023-12-20T11:38:13;5.00;;;2.60;;
38603;SDS011;24924;50.054;8.790;2023-12-20T11:40:40;5.25;;;2.20;;
38603;SDS011;24924;50.054;8.790;2023-12-20T11:43:08;3.58;;;2.30;;
38603;SDS011;24924;50.054;8.790;2023-12-20T11:45:34;3.75;;;2.15;;
38603;SDS011;24924;50.054;8.790;2023-12-20T11:48:00;4.40;;;2.00;;
38603;SDS011;24924;50.054;8.790;2023-12-20T11:50:29;4.95;;;2.70;;
38603;SDS011;24924;50.054;8.790;2023-12-20T11:52:56;3.75;;;2.17;;
38603;SDS011;24924;50.054;8.790;2023-12-20T11:55:22;5.38;;;2.78;;
38603;SDS011;24924;50.054;8.790;2023-12-20T11:57:51;6.40;;;2.63;;
38603;SDS011;24924;50.054;8.790;2023-12-20T12:00:18;3.92;;;2.60;;
38603;SDS011;24924;50.054;8.790;2023-12-20T12:02:54;7.13;;;2.63;;
38603;SDS011;24924;50.054;8.790;2023-12-20T12:05:21;3.30;;;2.30;;
38603;SDS011;24924;50.054;8.790;2023-12-20T12:07:47;5.13;;;2.77;;
38603;SDS011;24924;50.054;8.790;2023-12-20T12:10:13;5.50;;;2.60;;
38603;SDS011;24924;50.054;8.790;2023-12-20T12:12:39;4.30;;;2.17;;
38603;SDS011;24924;50.054;8.790;2023-12-20T12:15:05;7.70;;;2.50;;
38603;SDS011;24924;50.054;8.790;2023-12-20T12:17:31;4.53;;;2.70;;
38603;SDS011;24924;50.054;8.790;2023-12-20T12:20:03;3.72;;;2.40;;
38603;SDS011;24924;50.054;8.790;2023-12-20T12:22:30;5.20;;;2.20;;
38603;SDS011;24924;50.054;8.790;2023-12-20T12:24:58;7.50;;;2.55;;
38603;SDS011;24924;50.054;8.790;2023-12-20T12:27:27;5.40;;;2.22;;
38603;SDS011;24924;50.054;8.790;2023-12-20T12:30:02;6.72;;;2.33;;
38603;SDS011;24924;50.054;8.790;2023-12-20T12:32:29;5.60;;;2.75;;
38603;SDS011;24924;50.054;8.790;2023-12-20T12:34:56;4.77;;;2.23;;
38603;SDS011;24924;50.054;8.790;2023-12-20T12:37:22;3.72;;;2.10;;
38603;SDS011;24924;50.054;8.790;2023-12-20T12:39:49;3.70;;;2.33;;
38603;SDS011;24924;50.054;8.790;2023-12-20T12:42:15;3.77;;;2.17;;
38603;SDS011;24924;50.054;8.790;2023-12-20T12:44:40;3.80;;;2.35;;
38603;SDS011;24924;50.054;8.790;2023-12-20T12:47:06;3.90;;;2.20;;
38603;SDS011;24924;50.054;8.790;2023-12-20T12:49:33;3.42;;;2.05;;
38603;SDS011;24924;50.054;8.790;2023-12-20T12:51:58;3.38;;;2.08;;
38603;SDS011;24924;50.054;8.790;2023-12-20T12:54:24;5.40;;;2.50;;
38603;SDS011;24924;50.054;8.790;2023-12-20T12:56:50;4.88;;;3.28;;
38603;SDS011;24924;50.054;8.790;2023-12-20T12:59:18;6.65;;;2.70;;
38603;SDS011;24924;50.054;8.790;2023-12-20T13:01:44;3.30;;;2.17;;
38603;SDS011;24924;50.054;8.790;2023-12-20T13:04:09;3.30;;;2.20;;
38603;SDS011;24924;50.054;8.790;2023-12-20T13:06:38;4.72;;;2.30;;
38603;SDS011;24924;50.054;8.790;2023-12-20T13:09:03;4.00;;;2.20;;
38603;SDS011;24924;50.054;8.790;2023-12-20T13:11:34;5.93;;;2.28;;
38603;SDS011;24924;50.054;8.790;2023-12-20T13:14:00;3.88;;;2.20;;
38603;SDS011;24924;50.054;8.790;2023-12-20T13:16:26;4.83;;;2.77;;
38603;SDS011;24924;50.054;8.790;2023-12-20T13:18:52;6.93;;;2.55;;
38603;SDS011;24924;50.054;8.790;2023-12-20T13:21:17;4.53;;;2.40;;
38603;SDS011;24924;50.054;8.790;2023-12-20T13:23:43;3.70;;;2.40;;
38603;SDS011;24924;50.054;8.790;2023-12-20T13:26:09;3.73;;;2.70;;
38603;SDS011;24924;50.054;8.790;2023-12-20T13:28:34;3.30;;;1.95;;
38603;SDS011;24924;50.054;8.790;2023-12-20T13:31:00;4.77;;;2.50;;
38603;SDS011;24924;50.054;8.790;2023-12-20T13:33:26;6.90;;;2.75;;
38603;SDS011;24924;50.054;8.790;2023-12-20T13:35:52;6.03;;;2.40;;
38603;SDS011;24924;50.054;8.790;2023-12-20T13:38:17;6.50;;;2.63;;
38603;SDS011;24924;50.054;8.790;2023-12-20T13:40:43;4.53;;;3.00;;
38603;SDS011;24924;50.054;8.790;2023-12-20T13:43:09;3.40;;;2.30;;
38603;SDS011;24924;50.054;8.790;2023-12-20T13:45:37;4.63;;;2.28;;
38603;SDS011;24924;50.054;8.790;2023-12-20T13:48:02;4.60;;;2.60;;
38603;SDS011;24924;50.054;8.790;2023-12-20T13:50:29;4.95;;;2.92;;
38603;SDS011;24924;50.054;8.790;2023-12-20T13:52:54;4.30;;;2.70;;
38603;SDS011;24924;50.054;8.790;2023-12-20T13:55:20;4.22;;;2.40;;
38603;SDS011;24924;50.054;8.790;2023-12-20T13:57:50;4.13;;;2.17;;
38603;SDS011;24924;50.054;8.790;2023-12-20T14:00:16;4.88;;;2.08;;
38603;SDS011;24924;50.054;8.790;2023-12-20T14:02:42;5.03;;;2.50;;
38603;SDS011;24924;50.054;8.790;2023-12-20T14:05:08;4.00;;;2.28;;
38603;SDS011;24924;50.054;8.790;2023-12-20T14:07:35;3.92;;;2.38;;
38603;SDS011;24924;50.054;8.790;2023-12-20T14:10:01;5.05;;;2.78;;
38603;SDS011;24924;50.054;8.790;2023-12-20T14:12:27;6.43;;;2.90;;
38603;SDS011;24924;50.054;8.790;2023-12-20T14:14:53;4.70;;;2.43;;
38603;SDS011;24924;50.054;8.790;2023-12-20T14:17:20;3.65;;;2.20;;
38603;SDS011;24924;50.054;8.790;2023-12-20T14:19:47;3.60;;;2.25;;
38603;SDS011;24924;50.054;8.790;2023-12-20T14:22:12;5.10;;;3.10;;
38603;SDS011;24924;50.054;8.790;2023-12-20T14:24:42;4.97;;;2.58;;
38603;SDS011;24924;50.054;8.790;2023-12-20T14:27:08;5.25;;;2.83;;
38603;SDS011;24924;50.054;8.790;2023-12-20T14:29:34;3.30;;;1.97;;
38603;SDS011;24924;50.054;8.790;2023-12-20T14:32:00;7.93;;;2.58;;
38603;SDS011;24924;50.054;8.790;2023-12-20T14:34:28;3.30;;;2.03;;
38603;SDS011;24924;50.054;8.790;2023-12-20T14:36:54;4.25;;;2.47;;
38603;SDS011;24924;50.054;8.790;2023-12-20T14:39:19;3.73;;;2.60;;
38603;SDS011;24924;50.054;8.790;2023-12-20T14:41:45;3.38;;;2.00;;
38603;SDS011;24924;50.054;8.790;2023-12-20T14:44:11;6.28;;;2.78;;